Time;durP1;ratioP1;P1;durP2;ratioP2;P2;SDS_P1;SDS_P2;PMS_P1;PMS_P2;Temp;Humidity;BMP_temperature;BMP_pressure;BME280_temperature;BME280_humidity;BME280_pressure;Samples;Min_cycle;Max_cycle;Signal;HPM_P1;HPM_P2
2022/12/26 00:01:20;;;;;;;;;;;;;;;10.64;72.14;102505.41;5052824;28;19920;-83
2022/12/26 00:03:46;;;;;;;;;;;;;;;10.64;72.15;102507.13;5050998;28;19944;-83
2022/12/26 00:06:12;;;;;;;;;;;;;;;10.65;72.20;102493.28;5048888;28;19972;-83
2022/12/26 00:08:38;;;;;;;;;;;;;;;10.66;71.78;102501.22;5049003;28;19917;-83
2022/12/26 00:11:03;;;;;;;;;;;;;;;10.64;71.79;102508.00;5045326;28;19921;-83
2022/12/26 00:13:29;;;;;;;;;;;;;;;10.64;71.91;102512.34;5046070;28;19970;-83
2022/12/26 00:15:54;;;;;;;;;;;;;;;10.66;71.84;102513.38;5043284;28;19996;-84
2022/12/26 00:18:19;;;;;;;;;;;;;;;10.67;72.07;102521.34;5041708;28;19917;-84
2022/12/26 00:20:45;;;;;;;;;;;;;;;10.66;71.99;102523.81;5041805;28;19920;-84
2022/12/26 00:23:10;;;;;;;;;;;;;;;10.67;71.66;102534.41;5047176;28;20398;-83
2022/12/26 00:25:36;;;;;;;;;;;;;;;10.61;72.09;102531.28;5037824;28;19913;-84
2022/12/26 00:28:01;;;;;;;;;;;;;;;10.63;71.96;102529.72;5032799;28;20324;-84
2022/12/26 00:30:27;;;;;;;;;;;;;;;10.65;72.23;102530.75;5032878;28;20418;-84
2022/12/26 00:32:52;;;;;;;;;;;;;;;10.64;72.18;102541.97;5041901;28;20406;-84
2022/12/26 00:35:17;;;;;;;;;;;;;;;10.65;72.07;102543.81;5048357;28;20000;-84
2022/12/26 00:37:43;;;;;;;;;;;;;;;10.66;71.80;102547.34;5050336;28;20412;-84
2022/12/26 00:40:09;;;;;;;;;;;;;;;10.65;72.17;102545.53;5044879;28;20436;-84
2022/12/26 00:42:34;;;;;;;;;;;;;;;10.63;71.79;102552.34;5047384;28;20467;-84
2022/12/26 00:44:59;;;;;;;;;;;;;;;10.66;71.83;102557.78;5047260;28;19939;-84
2022/12/26 00:47:25;;;;;;;;;;;;;;;10.63;71.87;102557.56;5048719;28;20382;-83
2022/12/26 00:49:50;;;;;;;;;;;;;;;10.64;72.10;102560.28;5049728;28;20439;-83
2022/12/26 00:52:16;;;;;;;;;;;;;;;10.61;72.08;102561.75;5043887;28;20421;-83
2022/12/26 00:54:41;;;;;;;;;;;;;;;10.61;72.31;102567.88;5047388;28;20313;-83
2022/12/26 00:57:06;;;;;;;;;;;;;;;10.58;72.27;102567.59;5041548;28;20513;-83
2022/12/26 00:59:32;;;;;;;;;;;;;;;10.59;72.27;102566.81;5050514;28;19961;-83
2022/12/26 01:01:57;;;;;;;;;;;;;;;10.62;72.13;102561.84;5052104;28;19970;-83
2022/12/26 01:04:23;;;;;;;;;;;;;;;10.64;72.14;102567.19;5049737;28;19913;-83
2022/12/26 01:06:49;;;;;;;;;;;;;;;10.63;72.15;102568.91;5048624;28;20382;-83
2022/12/26 01:09:14;;;;;;;;;;;;;;;10.63;72.02;102565.41;5048739;28;19920;-83
2022/12/26 01:11:40;;;;;;;;;;;;;;;10.64;71.68;102567.19;5047247;28;20436;-83
2022/12/26 01:14:06;;;;;;;;;;;;;;;10.62;72.06;102567.06;5044578;28;20370;-83
2022/12/26 01:16:31;;;;;;;;;;;;;;;10.55;72.08;102565.66;5042701;28;19978;-83
2022/12/26 01:18:57;;;;;;;;;;;;;;;10.57;72.29;102563.19;5041731;28;20011;-83
2022/12/26 01:21:22;;;;;;;;;;;;;;;10.60;71.90;102558.19;5036451;28;19913;-83
2022/12/26 01:23:48;;;;;;;;;;;;;;;10.61;72.09;102554.81;5038080;28;19935;-83
2022/12/26 01:26:13;;;;;;;;;;;;;;;10.57;72.23;102558.84;5034123;28;20310;-83
2022/12/26 01:28:38;;;;;;;;;;;;;;;10.58;72.29;102559.75;5033807;28;20297;-83
2022/12/26 01:31:04;;;;;;;;;;;;;;;10.62;72.10;102555.72;5040069;28;20374;-83
2022/12/26 01:33:30;;;;;;;;;;;;;;;10.56;72.21;102558.72;5032909;28;20370;-83
2022/12/26 01:35:55;;;;;;;;;;;;;;;10.56;72.05;102566.56;5048816;28;19970;-83
2022/12/26 01:38:20;;;;;;;;;;;;;;;10.58;72.01;102559.75;5044986;28;19920;-83
2022/12/26 01:40:46;;;;;;;;;;;;;;;10.58;71.89;102560.69;5046248;28;20008;-84
2022/12/26 01:43:12;;;;;;;;;;;;;;;10.60;72.15;102547.75;5044440;28;19948;-83
2022/12/26 01:45:38;;;;;;;;;;;;;;;10.57;72.20;102552.72;5047640;28;19970;-83
2022/12/26 01:48:05;;;;;;;;;;;;;;;10.58;72.23;102546.69;5048238;28;19913;-83
2022/12/26 01:50:32;;;;;;;;;;;;;;;10.53;72.35;102548.94;5043341;28;19932;-83
2022/12/26 01:52:59;;;;;;;;;;;;;;;10.53;72.30;102546.31;5046207;28;19913;-84
2022/12/26 01:55:24;;;;;;;;;;;;;;;10.55;71.96;102551.69;5040116;28;19960;-83
2022/12/26 01:57:54;;;;;;;;;;;;;;;10.55;71.99;102554.31;5048263;28;19963;-83
2022/12/26 02:00:20;;;;;;;;;;;;;;;10.51;72.03;102558.34;5043094;28;20611;-83
2022/12/26 02:05:35;;;;;;;;;;;;;;;10.52;72.08;102557.56;5039045;28;19963;-83
2022/12/26 02:08:03;;;;;;;;;;;;;;;10.52;72.39;102567.09;5042842;28;19927;-83
2022/12/26 02:10:28;;;;;;;;;;;;;;;10.52;72.14;102572.31;5045857;28;19974;-83
2022/12/26 02:12:53;;;;;;;;;;;;;;;10.49;72.11;102572.06;5039776;28;19917;-83
2022/12/26 02:15:19;;;;;;;;;;;;;;;10.49;72.05;102575.59;5044024;28;19913;-83
2022/12/26 02:17:44;;;;;;;;;;;;;;;10.50;72.46;102584.38;5037210;28;20374;-83
2022/12/26 02:20:16;;;;;;;;;;;;;;;10.49;72.15;102582.53;5039575;28;20394;-83
2022/12/26 02:23:00;;;;;;;;;;;;;;;10.50;72.22;102585.28;5031965;28;20350;-83
2022/12/26 02:25:28;;;;;;;;;;;;;;;10.50;72.10;102587.88;5044695;28;20003;-83
2022/12/26 02:28:05;;;;;;;;;;;;;;;10.51;72.05;102587.09;5031745;28;20372;-83
2022/12/26 02:30:32;;;;;;;;;;;;;;;10.53;72.00;102584.59;5035565;28;20016;-84
2022/12/26 02:33:09;;;;;;;;;;;;;;;10.51;71.91;102583.56;5047660;28;19923;-83
2022/12/26 02:35:34;;;;;;;;;;;;;;;10.51;72.32;102588.78;5049495;28;20398;-83
2022/12/26 02:38:05;;;;;;;;;;;;;;;10.51;71.97;102605.38;5050746;28;19927;-84
2022/12/26 02:40:41;;;;;;;;;;;;;;;10.51;71.97;102596.63;5049845;28;19921;-83
2022/12/26 02:43:25;;;;;;;;;;;;;;;10.50;72.36;102592.19;5048600;28;20320;-84
2022/12/26 02:48:37;;;;;;;;;;;;;;;10.51;72.02;102599.25;5039582;28;20435;-83
2022/12/26 03:14:07;;;;;;;;;;;;;;;10.45;72.11;102620.53;5050244;28;19924;-83
2022/12/26 03:19:16;;;;;;;;;;;;;;;10.44;72.29;102615.19;5042096;28;19920;-83
2022/12/26 03:21:42;;;;;;;;;;;;;;;10.45;72.14;102601.34;5040506;28;19913;-83
2022/12/26 03:24:11;;;;;;;;;;;;;;;10.47;72.28;102607.59;5044294;28;19959;-83
2022/12/26 03:26:42;;;;;;;;;;;;;;;10.45;72.03;102606.56;5037869;28;20409;-83
2022/12/26 03:31:56;;;;;;;;;;;;;;;10.47;71.96;102611.13;5035681;28;20409;-83
2022/12/26 03:34:21;;;;;;;;;;;;;;;10.47;72.17;102618.03;5034889;28;19945;-84
2022/12/26 03:36:59;;;;;;;;;;;;;;;10.47;71.94;102618.94;5034395;28;20314;-83
2022/12/26 04:44:10;;;;;;;;;;;;;;;10.36;72.19;102622.38;5037678;28;20009;-83
2022/12/26 04:46:43;;;;;;;;;;;;;;;10.34;72.21;102635.28;5031168;28;19916;-84
2022/12/26 04:51:55;;;;;;;;;;;;;;;10.32;72.04;102636.84;5037545;28;19944;-84
2022/12/26 04:54:20;;;;;;;;;;;;;;;10.32;72.17;102638.56;5035486;28;20015;-84
2022/12/26 04:56:46;;;;;;;;;;;;;;;10.31;72.26;102636.75;5047373;28;19960;-83
2022/12/26 04:59:11;;;;;;;;;;;;;;;10.33;72.35;102641.31;5053060;28;19913;-84
2022/12/26 05:09:52;;;;;;;;;;;;;;;10.26;72.60;102649.34;5037419;28;20443;-84
2022/12/26 05:12:18;;;;;;;;;;;;;;;10.27;72.33;102660.72;5034682;28;19913;-83
2022/12/26 05:14:43;;;;;;;;;;;;;;;10.29;72.32;102661.78;5051820;28;19972;-83
2022/12/26 05:30:54;;;;;;;;;;;;;;;10.19;72.85;102686.19;5036043;28;20054;-82
2022/12/26 05:36:03;;;;;;;;;;;;;;;10.18;72.67;102697.38;5026374;28;19928;-82
2022/12/26 05:38:28;;;;;;;;;;;;;;;10.17;72.82;102703.41;5052249;28;19913;-82
2022/12/26 05:40:54;;;;;;;;;;;;;;;10.17;72.80;102704.31;5051215;28;20011;-82
2022/12/26 05:43:19;;;;;;;;;;;;;;;10.15;72.94;102702.34;5051958;28;20389;-82
2022/12/26 05:45:45;;;;;;;;;;;;;;;10.15;72.81;102713.72;5041639;28;20378;-81
2022/12/26 05:48:10;;;;;;;;;;;;;;;10.14;72.62;102711.00;5045331;28;19962;-82
2022/12/26 05:50:35;;;;;;;;;;;;;;;10.13;72.73;102712.66;5040305;28;19968;-82
2022/12/26 05:53:02;;;;;;;;;;;;;;;10.14;72.71;102721.44;5043148;28;19913;-81
2022/12/26 05:55:28;;;;;;;;;;;;;;;10.15;72.49;102723.25;5037846;28;19920;-82
2022/12/26 05:57:53;;;;;;;;;;;;;;;10.15;72.45;102731.06;5038543;28;19933;-81
2022/12/26 06:00:19;;;;;;;;;;;;;;;10.14;72.53;102730.16;5035064;28;19914;-82
2022/12/26 06:02:44;;;;;;;;;;;;;;;10.15;72.37;102725.84;5032165;28;20433;-83
2022/12/26 06:05:09;;;;;;;;;;;;;;;10.13;72.60;102728.31;5032876;28;19913;-83
2022/12/26 06:07:35;;;;;;;;;;;;;;;10.13;72.58;102723.09;5047923;28;20378;-82
2022/12/26 06:10:00;;;;;;;;;;;;;;;10.13;72.69;102723.09;5048718;28;20367;-82
2022/12/26 06:15:11;;;;;;;;;;;;;;;10.11;72.60;102719.44;5031384;28;20016;-82
2022/12/26 06:17:37;;;;;;;;;;;;;;;10.11;72.79;102715.94;5031377;28;19925;-83
2022/12/26 06:20:02;;;;;;;;;;;;;;;10.10;72.59;102714.09;5035051;28;19915;-82
2022/12/26 06:22:28;;;;;;;;;;;;;;;10.07;72.89;102708.59;5044493;28;19940;-81
2022/12/26 06:24:53;;;;;;;;;;;;;;;10.09;72.80;102710.56;5034425;28;19913;-83
2022/12/26 06:27:19;;;;;;;;;;;;;;;10.10;72.82;102711.50;5044139;28;19973;-84
2022/12/26 06:29:44;;;;;;;;;;;;;;;10.08;72.60;102706.13;5046599;28;20301;-83
2022/12/26 06:32:10;;;;;;;;;;;;;;;10.07;72.87;102708.59;5044792;28;20433;-85
2022/12/26 06:34:36;;;;;;;;;;;;;;;10.07;72.93;102712.13;5041470;28;19924;-82
2022/12/26 06:37:02;;;;;;;;;;;;;;;10.08;72.82;102713.97;5050784;28;19948;-82
2022/12/26 06:39:27;;;;;;;;;;;;;;;10.07;72.85;102719.03;5058523;28;19928;-83
2022/12/26 06:41:52;;;;;;;;;;;;;;;10.09;72.48;102710.56;5054357;28;19955;-83
2022/12/26 06:44:18;;;;;;;;;;;;;;;10.08;72.67;102713.97;5043420;28;19967;-83
2022/12/26 06:46:43;;;;;;;;;;;;;;;10.09;72.77;102712.25;5040935;28;20417;-84
2022/12/26 06:49:09;;;;;;;;;;;;;;;10.07;72.76;102716.44;5045183;28;20394;-83
2022/12/26 06:51:34;;;;;;;;;;;;;;;10.06;72.81;102715.53;5041032;28;19917;-85
2022/12/26 06:54:01;;;;;;;;;;;;;;;10.05;72.66;102716.28;5041844;28;20298;-83
2022/12/26 06:56:26;;;;;;;;;;;;;;;10.04;72.87;102708.34;5038368;28;19920;-83
2022/12/26 06:58:56;;;;;;;;;;;;;;;10.01;72.94;102716.81;5041362;28;19917;-83
2022/12/26 07:01:21;;;;;;;;;;;;;;;10.07;72.45;102713.81;5042547;28;19921;-84
2022/12/26 07:03:47;;;;;;;;;;;;;;;10.03;72.90;102710.03;5038240;28;19917;-81
2022/12/26 07:06:20;;;;;;;;;;;;;;;10.07;72.42;102711.22;5043698;28;19913;-83
2022/12/26 07:08:46;;;;;;;;;;;;;;;10.07;72.40;102722.56;5041499;28;20673;-82
2022/12/26 07:11:12;;;;;;;;;;;;;;;10.05;72.79;102720.59;5039208;28;19917;-81
2022/12/26 07:13:37;;;;;;;;;;;;;;;10.02;72.47;102718.66;5040303;28;19913;-81
2022/12/26 07:16:03;;;;;;;;;;;;;;;10.03;72.45;102723.06;5044184;28;19966;-81
2022/12/26 07:18:28;;;;;;;;;;;;;;;10.03;72.45;102716.94;5047628;28;20307;-81
2022/12/26 07:20:54;;;;;;;;;;;;;;;10.06;72.42;102728.56;5051309;28;20375;-82
2022/12/26 07:23:19;;;;;;;;;;;;;;;10.11;72.14;102731.59;5042328;28;20389;-82
2022/12/26 07:25:46;;;;;;;;;;;;;;;10.09;72.38;102730.53;5034072;28;19913;-83
2022/12/26 07:28:11;;;;;;;;;;;;;;;10.05;72.72;102742.41;5051735;28;19920;-83
2022/12/26 07:30:36;;;;;;;;;;;;;;;10.07;72.67;102755.59;5048177;28;19928;-83
2022/12/26 07:33:02;;;;;;;;;;;;;;;10.06;72.67;102757.28;5049527;28;19916;-83
2022/12/26 07:35:27;;;;;;;;;;;;;;;10.04;72.75;102755.34;5029402;28;20329;-80
2022/12/26 07:37:53;;;;;;;;;;;;;;;10.05;72.37;102744.09;5042967;28;20008;-82
2022/12/26 07:40:18;;;;;;;;;;;;;;;10.04;72.74;102743.19;5034306;28;20378;-81
2022/12/26 07:42:44;;;;;;;;;;;;;;;10.04;72.76;102739.69;5025347;28;19924;-83
2022/12/26 07:45:09;;;;;;;;;;;;;;;10.08;72.59;102744.38;5047461;28;20401;-83
2022/12/26 07:47:35;;;;;;;;;;;;;;;10.07;72.24;102742.53;5040652;28;20374;-83
2022/12/26 07:50:00;;;;;;;;;;;;;;;10.07;72.41;102740.84;5039929;28;20021;-83
2022/12/26 07:52:26;;;;;;;;;;;;;;;10.08;72.26;102737.47;5050157;28;20436;-83
2022/12/26 07:54:51;;;;;;;;;;;;;;;10.11;72.41;102740.31;5052849;28;20356;-83
2022/12/26 07:57:16;;;;;;;;;;;;;;;10.08;72.43;102747.00;5047013;28;20358;-84
2022/12/26 07:59:42;;;;;;;;;;;;;;;10.08;72.50;102745.28;5049778;28;20374;-84
2022/12/26 08:02:08;;;;;;;;;;;;;;;10.09;72.20;102728.84;5042630;28;19924;-85
2022/12/26 08:04:34;;;;;;;;;;;;;;;10.07;72.21;102734.72;5033719;28;19944;-82
2022/12/26 08:06:59;;;;;;;;;;;;;;;10.04;72.52;102737.97;5033886;28;19917;-83
2022/12/26 08:09:25;;;;;;;;;;;;;;;10.05;72.45;102742.41;5047708;28;20405;-83
2022/12/26 08:11:50;;;;;;;;;;;;;;;10.06;72.40;102748.56;5015587;28;19917;-83
2022/12/26 08:14:15;;;;;;;;;;;;;;;10.08;72.27;102755.75;5039757;28;19916;-81
2022/12/26 08:16:41;;;;;;;;;;;;;;;10.07;72.28;102745.16;5051562;28;20368;-82
2022/12/26 08:19:07;;;;;;;;;;;;;;;10.05;72.62;102754.53;5049054;28;20027;-82
2022/12/26 08:21:32;;;;;;;;;;;;;;;10.05;72.65;102754.53;5050416;28;20362;-84
2022/12/26 08:23:57;;;;;;;;;;;;;;;10.07;72.28;102746.06;5043888;28;19952;-83
2022/12/26 08:26:23;;;;;;;;;;;;;;;10.11;72.44;102744.63;5046575;28;20302;-83
2022/12/26 08:28:49;;;;;;;;;;;;;;;10.09;72.25;102741.88;5046359;28;19913;-83
2022/12/26 08:31:15;;;;;;;;;;;;;;;10.07;72.41;102743.44;5044129;28;19962;-83
2022/12/26 08:33:40;;;;;;;;;;;;;;;10.12;72.08;102734.34;5039926;28;20083;-84
2022/12/26 08:36:06;;;;;;;;;;;;;;;10.08;72.52;102742.69;5041901;28;20008;-83
2022/12/26 08:38:32;;;;;;;;;;;;;;;10.09;72.33;102741.88;5042931;28;19921;-83
2022/12/26 08:40:57;;;;;;;;;;;;;;;10.10;72.39;102740.22;5049967;28;19944;-83
2022/12/26 08:43:23;;;;;;;;;;;;;;;10.08;72.23;102740.06;5051040;28;19916;-82
2022/12/26 08:45:56;;;;;;;;;;;;;;;10.06;72.25;102744.25;5047400;28;20401;-82
2022/12/26 08:48:22;;;;;;;;;;;;;;;10.04;72.35;102740.59;5051229;28;19927;-82
2022/12/26 08:50:47;;;;;;;;;;;;;;;10.06;72.61;102738.13;5043557;28;20736;-82
2022/12/26 08:53:12;;;;;;;;;;;;;;;10.07;72.49;102730.41;5047115;28;19925;-83
2022/12/26 08:55:38;;;;;;;;;;;;;;;10.04;72.28;102724.00;5045466;28;20378;-84
2022/12/26 08:58:03;;;;;;;;;;;;;;;10.02;72.64;102715.13;5045884;28;20400;-83
2022/12/26 09:00:29;;;;;;;;;;;;;;;10.04;72.42;102717.09;5043195;28;20402;-83
2022/12/26 09:02:54;;;;;;;;;;;;;;;10.06;72.37;102710.31;5049499;28;20401;-84
2022/12/26 09:05:19;;;;;;;;;;;;;;;10.07;72.54;102706.00;5037461;28;20425;-85
2022/12/26 09:07:45;;;;;;;;;;;;;;;10.07;72.32;102687.72;5044275;28;20011;-84
2022/12/26 09:10:10;;;;;;;;;;;;;;;10.08;72.35;102692.19;5047055;28;20354;-84
2022/12/26 09:12:36;;;;;;;;;;;;;;;10.08;72.49;102685.25;5044476;28;20394;-83
2022/12/26 09:15:01;;;;;;;;;;;;;;;10.07;72.45;102691.25;5041593;28;19924;-83
2022/12/26 09:17:27;;;;;;;;;;;;;;;10.06;72.54;102683.31;5044348;28;20630;-83
2022/12/26 09:19:52;;;;;;;;;;;;;;;10.07;72.12;102683.41;5046129;28;20554;-84
2022/12/26 09:25:02;;;;;;;;;;;;;;;10.06;72.34;102684.19;5048166;28;19963;-85
2022/12/26 09:27:27;;;;;;;;;;;;;;;10.09;72.44;102676.63;5046338;28;20527;-84
2022/12/26 09:29:53;;;;;;;;;;;;;;;10.11;72.12;102679.38;5039351;28;20309;-84
2022/12/26 09:32:18;;;;;;;;;;;;;;;10.09;72.53;102675.72;5049961;28;19924;-85
2022/12/26 09:34:44;;;;;;;;;;;;;;;10.08;72.52;102671.28;5039686;28;20271;-85
2022/12/26 09:37:09;;;;;;;;;;;;;;;10.10;72.49;102672.34;5046105;28;20416;-84
2022/12/26 09:39:35;;;;;;;;;;;;;;;10.10;72.51;102667.13;5044247;28;19921;-82
2022/12/26 09:42:19;;;;;;;;;;;;;;;10.12;72.43;102662.94;5048176;28;19917;-83
2022/12/26 09:44:50;;;;;;;;;;;;;;;10.12;72.33;102661.25;5043975;28;19924;-84
2022/12/26 09:47:18;;;;;;;;;;;;;;;10.12;72.17;102665.56;5044045;28;19924;-83
2022/12/26 09:49:50;;;;;;;;;;;;;;;10.12;72.48;102668.16;5040088;28;19921;-81
2022/12/26 09:52:16;;;;;;;;;;;;;;;10.08;72.36;102664.38;5038482;28;19984;-83
2022/12/26 09:54:43;;;;;;;;;;;;;;;10.13;72.29;102667.38;5045633;28;19928;-82
2022/12/26 09:57:25;;;;;;;;;;;;;;;10.11;72.38;102658.50;5045983;28;20386;-84
2022/12/26 09:59:58;;;;;;;;;;;;;;;10.13;72.26;102663.06;5028722;28;19917;-82
2022/12/26 10:02:26;;;;;;;;;;;;;;;10.09;72.11;102654.81;5039537;28;19967;-84
2022/12/26 10:04:52;;;;;;;;;;;;;;;10.11;72.51;102656.78;5034808;28;19979;-84
2022/12/26 10:07:37;;;;;;;;;;;;;;;10.13;72.31;102646.47;5030700;28;19913;-83
2022/12/26 10:10:04;;;;;;;;;;;;;;;10.14;72.41;102641.41;5048769;28;20003;-84
2022/12/26 10:12:37;;;;;;;;;;;;;;;10.10;72.43;102636.69;5048381;28;19913;-83
2022/12/26 10:15:18;;;;;;;;;;;;;;;10.12;72.14;102634.22;5048373;28;19935;-83
2022/12/26 10:17:55;;;;;;;;;;;;;;;10.10;72.28;102631.47;5045674;28;19921;-82
2022/12/26 10:20:36;;;;;;;;;;;;;;;10.11;72.11;102633.28;5044263;28;19917;-81
2022/12/26 10:23:20;;;;;;;;;;;;;;;10.11;72.51;102627.16;5038999;28;20382;-82
2022/12/26 10:25:46;;;;;;;;;;;;;;;10.08;72.47;102620.00;5042899;28;20296;-82
2022/12/26 10:28:15;;;;;;;;;;;;;;;10.12;72.46;102622.09;5043045;28;19971;-82
2022/12/26 10:30:40;;;;;;;;;;;;;;;10.08;72.27;102617.38;5041030;28;19924;-84
2022/12/26 10:33:09;;;;;;;;;;;;;;;10.04;72.69;102622.22;5039184;28;20317;-84
2022/12/26 10:35:43;;;;;;;;;;;;;;;10.07;72.29;102617.25;5031151;28;19913;-82
2022/12/26 10:38:26;;;;;;;;;;;;;;;10.07;72.41;102615.53;5022363;28;19940;-83
2022/12/26 10:40:52;;;;;;;;;;;;;;;10.08;72.44;102608.63;5037352;28;19948;-83
2022/12/26 10:43:24;;;;;;;;;;;;;;;10.06;72.42;102604.97;5030414;28;20439;-85
2022/12/26 10:46:07;;;;;;;;;;;;;;;10.08;72.60;102609.56;5043563;28;19925;-83
2022/12/26 10:48:33;;;;;;;;;;;;;;;10.10;72.38;102599.25;5038792;28;19917;-83
2022/12/26 10:51:00;;;;;;;;;;;;;;;10.10;72.26;102605.38;5040737;28;20566;-82
2022/12/26 10:53:26;;;;;;;;;;;;;;;10.08;72.40;102609.56;5041709;28;19975;-85
2022/12/26 10:55:52;;;;;;;;;;;;;;;10.10;72.16;102612.31;5042728;28;19928;-83
2022/12/26 10:58:18;;;;;;;;;;;;;;;10.08;72.46;102606.94;5037902;28;19925;-83
2022/12/26 11:00:44;;;;;;;;;;;;;;;10.04;72.58;102602.25;5031720;28;20005;-84
2022/12/26 11:03:09;;;;;;;;;;;;;;;10.08;72.58;102590.38;5041383;28;20003;-84
2022/12/26 11:05:39;;;;;;;;;;;;;;;10.12;72.08;102588.16;5046322;28;19941;-85
2022/12/26 11:08:23;;;;;;;;;;;;;;;10.11;71.99;102583.69;5029811;28;19923;-88
2022/12/26 11:11:09;;;;;;;;;;;;;;;10.07;72.09;102585.91;5048593;28;20388;-87
2022/12/26 11:13:36;;;;;;;;;;;;;;;10.11;72.22;102591.53;5033308;28;20305;-85
2022/12/26 11:16:01;;;;;;;;;;;;;;;10.06;72.34;102584.09;5046203;28;19924;-84
2022/12/26 11:18:31;;;;;;;;;;;;;;;10.10;72.36;102576.66;5045434;28;20378;-86
2022/12/26 11:20:56;;;;;;;;;;;;;;;10.09;72.42;102572.19;5048466;28;19913;-86
2022/12/26 11:23:23;;;;;;;;;;;;;;;10.09;71.99;102574.81;5032300;28;19920;-84
2022/12/26 11:25:50;;;;;;;;;;;;;;;10.13;72.17;102579.50;5042338;28;19974;-87
2022/12/26 11:28:22;;;;;;;;;;;;;;;10.07;72.22;102589.44;5026906;28;19918;-88
2022/12/26 11:30:48;;;;;;;;;;;;;;;10.04;72.54;102588.28;5030327;28;19928;-84
2022/12/26 11:33:23;;;;;;;;;;;;;;;9.96;72.41;102593.72;5043940;28;19912;-87
2022/12/26 11:35:50;;;;;;;;;;;;;;;9.88;72.72;102586.03;5042103;28;20310;-85
2022/12/26 11:38:33;;;;;;;;;;;;;;;9.93;72.80;102585.66;5045218;28;19916;-86
2022/12/26 11:43:43;;;;;;;;;;;;;;;10.02;72.87;102584.63;5043500;28;19978;-85
2022/12/26 11:46:09;;;;;;;;;;;;;;;10.01;72.22;102574.94;5029497;28;19917;-85
2022/12/26 11:48:34;;;;;;;;;;;;;;;9.98;72.55;102578.22;5042667;28;20314;-81
2022/12/26 11:51:00;;;;;;;;;;;;;;;10.03;72.22;102569.06;5044640;28;20321;-81
2022/12/26 11:53:25;;;;;;;;;;;;;;;10.01;72.47;102577.56;5044831;28;20309;-84
2022/12/26 11:55:58;;;;;;;;;;;;;;;10.03;72.43;102568.16;5039475;28;20393;-83
2022/12/26 11:58:26;;;;;;;;;;;;;;;9.99;72.43;102567.00;5047234;28;19951;-81
2022/12/26 12:00:53;;;;;;;;;;;;;;;10.04;72.26;102560.47;5044965;28;19917;-82
2022/12/26 12:03:18;;;;;;;;;;;;;;;10.07;72.43;102557.19;5045889;28;19939;-82
2022/12/26 12:05:53;;;;;;;;;;;;;;;10.06;72.28;102556.28;5046286;28;20313;-81
2022/12/26 12:08:37;;;;;;;;;;;;;;;10.07;72.48;102559.81;5044809;28;19916;-82
2022/12/26 12:11:09;;;;;;;;;;;;;;;10.06;72.32;102551.06;5046068;28;20378;-82
2022/12/26 12:13:44;;;;;;;;;;;;;;;10.09;72.24;102555.63;5050814;28;19912;-82
2022/12/26 12:16:18;;;;;;;;;;;;;;;10.03;72.63;102556.00;5044518;28;20028;-84
2022/12/26 12:18:50;;;;;;;;;;;;;;;10.12;72.59;102555.91;5039859;28;20530;-83
2022/12/26 12:21:39;;;;;;;;;;;;;;;10.22;72.30;102548.03;5046503;28;19925;-82
2022/12/26 12:24:23;;;;;;;;;;;;;;;10.23;72.30;102544.66;5023890;28;19917;-82
2022/12/26 12:27:00;;;;;;;;;;;;;;;10.15;72.30;102544.00;5044950;28;20329;-84
2022/12/26 12:29:30;;;;;;;;;;;;;;;10.15;72.68;102541.41;5041082;28;19922;-85
2022/12/26 12:32:04;;;;;;;;;;;;;;;10.23;72.15;102538.53;5041727;28;19917;-84
2022/12/26 12:34:33;;;;;;;;;;;;;;;10.24;72.02;102546.47;5045642;28;19921;-85
2022/12/26 12:37:16;;;;;;;;;;;;;;;10.22;72.34;102542.81;5042260;28;19921;-84
2022/12/26 12:39:42;;;;;;;;;;;;;;;10.23;72.54;102548.97;5043042;28;19976;-83
2022/12/26 12:42:22;;;;;;;;;;;;;;;10.24;72.55;102540.34;5046862;28;20005;-84
2022/12/26 12:44:50;;;;;;;;;;;;;;;10.31;72.24;102548.88;5019331;28;19975;-84
2022/12/26 12:47:19;;;;;;;;;;;;;;;10.23;72.12;102552.50;5044080;28;20002;-83
2022/12/26 12:49:44;;;;;;;;;;;;;;;10.29;72.26;102557.34;5044274;28;19924;-84
2022/12/26 12:52:12;;;;;;;;;;;;;;;10.30;71.91;102551.34;5053370;28;20310;-83
2022/12/26 12:54:48;;;;;;;;;;;;;;;10.29;72.08;102547.81;5023680;28;20421;-83
2022/12/26 12:57:46;;;;;;;;;;;;;;;10.26;72.10;102547.50;5035255;28;19914;-83
2022/12/26 13:00:15;;;;;;;;;;;;;;;10.29;72.06;102549.50;5010406;28;19928;-83
2022/12/26 13:02:41;;;;;;;;;;;;;;;10.27;72.44;102554.59;5032704;28;19913;-83
2022/12/26 13:05:13;;;;;;;;;;;;;;;10.23;72.50;102544.66;5031147;28;19924;-83
2022/12/26 13:07:39;;;;;;;;;;;;;;;10.24;72.25;102551.69;5043596;28;19913;-82
2022/12/26 13:10:06;;;;;;;;;;;;;;;10.25;72.34;102545.69;5031094;28;20382;-83
2022/12/26 13:12:34;;;;;;;;;;;;;;;10.24;72.43;102550.78;5047150;28;19920;-83
2022/12/26 13:15:01;;;;;;;;;;;;;;;10.26;72.42;102549.22;5046594;28;20003;-83
2022/12/26 13:17:28;;;;;;;;;;;;;;;10.26;72.40;102549.22;5029663;28;20071;-83
2022/12/26 13:20:02;;;;;;;;;;;;;;;10.23;72.53;102549.88;5041198;28;19913;-83
2022/12/26 13:24:22;;;;;;;;;;;;;;;10.16;72.72;102553.69;5044322;28;19917;-83
2022/12/26 13:25:19;;;;;;;;;;;;;;;10.20;72.67;102554.81;5045558;28;19916;-83
2022/12/26 13:27:44;;;;;;;;;;;;;;;10.15;72.70;102550.94;5040408;28;20408;-83
2022/12/26 13:30:11;;;;;;;;;;;;;;;10.17;72.48;102549.38;5037879;28;19917;-83
2022/12/26 13:32:37;;;;;;;;;;;;;;;10.15;72.86;102543.09;5033916;28;20374;-82
2022/12/26 13:35:03;;;;;;;;;;;;;;;10.18;72.51;102546.91;5040895;28;20017;-85
2022/12/26 13:37:31;;;;;;;;;;;;;;;10.17;72.73;102538.94;5033955;28;20452;-86
2022/12/26 13:40:01;;;;;;;;;;;;;;;10.16;72.33;102544.94;5041134;28;20418;-86
2022/12/26 13:45:38;;;;;;;;;;;;;;;10.09;72.69;102550.41;5020231;28;19912;-86
2022/12/26 13:48:16;;;;;;;;;;;;;;;10.12;72.64;102555.91;5042769;28;19917;-87
2022/12/26 13:50:51;;;;;;;;;;;;;;;10.11;72.62;102560.19;5044683;28;19921;-85
2022/12/26 13:53:36;;;;;;;;;;;;;;;10.08;72.75;102551.22;5014051;28;20007;-85
2022/12/26 13:56:01;;;;;;;;;;;;;;;10.05;73.24;102549.22;5035968;28;19920;-86
2022/12/26 13:58:43;;;;;;;;;;;;;;;10.11;72.65;102560.19;5043917;28;20454;-88
2022/12/26 14:01:27;;;;;;;;;;;;;;;10.08;72.96;102546.00;5043719;28;19928;-87
2022/12/26 14:04:05;;;;;;;;;;;;;;;10.11;72.57;102546.25;5043765;28;20407;-89
2022/12/26 14:06:49;;;;;;;;;;;;;;;10.07;72.82;102546.75;5034365;28;19917;-88
2022/12/26 14:09:20;;;;;;;;;;;;;;;10.13;73.05;102548.19;5045906;28;20406;-88
2022/12/26 14:11:48;;;;;;;;;;;;;;;10.14;72.90;102549.13;5014269;28;20375;-87
2022/12/26 14:14:17;;;;;;;;;;;;;;;10.08;72.98;102546.91;5041073;28;19923;-86
2022/12/26 14:17:02;;;;;;;;;;;;;;;10.09;72.98;102543.50;5045270;28;20453;-86
2022/12/26 14:19:34;;;;;;;;;;;;;;;10.14;72.65;102530.84;5028613;28;19950;-87
2022/12/26 14:22:03;;;;;;;;;;;;;;;10.18;72.44;102526.00;5042322;28;19917;-86
2022/12/26 14:24:28;;;;;;;;;;;;;;;10.16;72.51;102524.97;5036296;28;19917;-86
2022/12/26 14:27:12;;;;;;;;;;;;;;;10.18;72.71;102526.00;5046235;28;20365;-86
2022/12/26 14:29:38;;;;;;;;;;;;;;;10.16;72.74;102524.06;5036949;28;19963;-86
2022/12/26 14:32:09;;;;;;;;;;;;;;;10.18;72.56;102525.06;5041257;28;19960;-87
2022/12/26 14:35:01;;;;;;;;;;;;;;;10.13;72.93;102526.41;5047174;28;19913;-87
2022/12/26 14:37:30;;;;;;;;;;;;;;;10.14;72.58;102523.91;5012978;28;19928;-87
2022/12/26 14:39:56;;;;;;;;;;;;;;;10.14;72.60;102526.53;5024601;28;19920;-87
2022/12/26 14:45:24;;;;;;;;;;;;;;;10.08;72.72;102525.09;5042783;28;19940;-87
2022/12/26 14:47:49;;;;;;;;;;;;;;;10.16;72.66;102531.91;5032139;28;20412;-87
2022/12/26 14:50:33;;;;;;;;;;;;;;;10.14;72.49;102529.16;5045625;28;20067;-86
2022/12/26 14:53:17;;;;;;;;;;;;;;;10.11;72.98;102536.69;5048577;28;20007;-87
2022/12/26 14:55:46;;;;;;;;;;;;;;;10.11;73.02;102517.53;5043945;28;19917;-88
2022/12/26 14:58:32;;;;;;;;;;;;;;;10.15;72.88;102524.81;5040700;28;20309;-88
2022/12/26 15:01:16;;;;;;;;;;;;;;;10.09;72.66;102527.81;5033475;28;20420;-88
2022/12/26 15:03:43;;;;;;;;;;;;;;;10.12;72.92;102519.38;5044480;28;19932;-86
2022/12/26 15:06:17;;;;;;;;;;;;;;;10.15;72.75;102523.13;5041762;28;19917;-86